aviador You're here:

PAQT Decoded Metar

NUIQSUT in AK, USA
Report Time2017-11-24 01:53:00
UTC Time2017-11-24 02:10:42
Flight Rules vfr VFR
Wind210° at 12 kt
W.Decomp.*RWY 23: 9.1 kt HW 7.9 kt LCW
W.Rank210° ranks 12
Current wind is above 210° avg. (7.8)
Visibility9999 m
Phenomena:N/A
Clouds:Overcast 047 Hf
Expected CloudBase > 800 ft AGL from Temp-Dew spread
Ceiling4,700 ft
Temp-9°C (ISA -24)
Dew Point-11°C (86% RH)
AAT-16.4°C
QNH998 hPa
Density Alt-2,392 ft
Elevation39 ft
Report Wrong Elevation
Raw Report
PAQT 240153Z AUTO 21012KT 10SM OVC047 M09/M11 A2946 RMK AO2
UPB06E27 SLP976 P0000 T10891106 TSNO=

Extra information for PAQT:More info

Metar Taf Metar & Taf Last 4 Metars F.Rules Stats Wind Profile Meteogram Temp Stats Airport Information Weather charts Add Link Nearby VenuesMetar ALERT Operation Metar Decoded Social comments

AIRNAV info for PAQT